Terminal Aerodrome Forecast
Issued by NWS

Home | Current Version | Previous Version | Text Only | Print | Product List | Glossary On
Versions: 1 2 3 4 5 6 7 8 9 10 11 12 13 14 15 16 17 18 19 20 21 22 23 24 25 26 27
575
FTUS42 KFFC 272325
TAFFTY
TAF
KFTY 272325Z 2800/2824 19005KT P6SM VCSH SCT050
     FM280500 22003KT P6SM BKN035
     FM281000 24003KT 6SM BR OVC008
     FM281400 26006KT P6SM BKN012
     FM281700 27008KT P6SM BKN045 PROB30 2817/2821 5SM TSRA BKN035CB
     FM282200 27005KT P6SM SCT050=

USA.gov is the U.S. government's official web portal to all federal, state and local government web resources and services.